sensor_id;sensor_type;location;lat;lon;timestamp;P1;durP1;ratioP1;P2;durP2;ratioP2
14098;SDS011;7126;48.458;7.930;2022-07-22T00:01:12;1.92;;;1.88;;
14098;SDS011;7126;48.458;7.930;2022-07-22T00:03:38;2.20;;;2.10;;
14098;SDS011;7126;48.458;7.930;2022-07-22T00:06:03;1.80;;;1.70;;
14098;SDS011;7126;48.458;7.930;2022-07-22T00:08:29;1.67;;;1.67;;
14098;SDS011;7126;48.458;7.930;2022-07-22T00:10:55;2.22;;;2.13;;
14098;SDS011;7126;48.458;7.930;2022-07-22T00:13:20;2.08;;;1.98;;
14098;SDS011;7126;48.458;7.930;2022-07-22T00:15:46;2.47;;;2.28;;
14098;SDS011;7126;48.458;7.930;2022-07-22T00:18:11;1.80;;;1.70;;
14098;SDS011;7126;48.458;7.930;2022-07-22T00:20:37;1.98;;;1.88;;
14098;SDS011;7126;48.458;7.930;2022-07-22T00:23:03;2.00;;;1.90;;
14098;SDS011;7126;48.458;7.930;2022-07-22T00:25:28;1.73;;;1.73;;
14098;SDS011;7126;48.458;7.930;2022-07-22T00:27:54;1.73;;;1.63;;
14098;SDS011;7126;48.458;7.930;2022-07-22T00:30:20;1.83;;;1.83;;
14098;SDS011;7126;48.458;7.930;2022-07-22T00:32:46;2.72;;;2.63;;
14098;SDS011;7126;48.458;7.930;2022-07-22T00:35:11;1.85;;;1.80;;
14098;SDS011;7126;48.458;7.930;2022-07-22T00:37:37;1.80;;;1.75;;
14098;SDS011;7126;48.458;7.930;2022-07-22T00:40:03;1.60;;;1.60;;
14098;SDS011;7126;48.458;7.930;2022-07-22T00:42:29;2.30;;;2.20;;
14098;SDS011;7126;48.458;7.930;2022-07-22T00:44:55;2.00;;;1.90;;
14098;SDS011;7126;48.458;7.930;2022-07-22T00:47:20;1.85;;;1.70;;
14098;SDS011;7126;48.458;7.930;2022-07-22T00:49:46;2.47;;;2.38;;
14098;SDS011;7126;48.458;7.930;2022-07-22T00:52:12;2.00;;;1.90;;
14098;SDS011;7126;48.458;7.930;2022-07-22T00:54:38;2.88;;;2.20;;
14098;SDS011;7126;48.458;7.930;2022-07-22T00:57:04;1.63;;;1.63;;
14098;SDS011;7126;48.458;7.930;2022-07-22T00:59:30;2.33;;;2.22;;
14098;SDS011;7126;48.458;7.930;2022-07-22T01:01:56;3.03;;;1.92;;
14098;SDS011;7126;48.458;7.930;2022-07-22T01:04:21;1.75;;;1.75;;
14098;SDS011;7126;48.458;7.930;2022-07-22T01:06:47;1.75;;;1.73;;
14098;SDS011;7126;48.458;7.930;2022-07-22T01:09:13;1.83;;;1.73;;
14098;SDS011;7126;48.458;7.930;2022-07-22T01:11:39;1.67;;;1.58;;
14098;SDS011;7126;48.458;7.930;2022-07-22T01:14:05;1.58;;;1.58;;
14098;SDS011;7126;48.458;7.930;2022-07-22T01:16:31;2.92;;;1.80;;
14098;SDS011;7126;48.458;7.930;2022-07-22T01:18:57;1.70;;;1.70;;
14098;SDS011;7126;48.458;7.930;2022-07-22T01:21:22;1.73;;;1.73;;
14098;SDS011;7126;48.458;7.930;2022-07-22T01:23:48;1.98;;;1.92;;
14098;SDS011;7126;48.458;7.930;2022-07-22T01:26:14;1.85;;;1.75;;
14098;SDS011;7126;48.458;7.930;2022-07-22T01:28:40;2.35;;;2.05;;
14098;SDS011;7126;48.458;7.930;2022-07-22T01:31:07;3.75;;;1.80;;
14098;SDS011;7126;48.458;7.930;2022-07-22T01:33:32;1.75;;;1.70;;
14098;SDS011;7126;48.458;7.930;2022-07-22T01:35:59;1.80;;;1.70;;
14098;SDS011;7126;48.458;7.930;2022-07-22T01:38:24;1.80;;;1.70;;
14098;SDS011;7126;48.458;7.930;2022-07-22T01:40:50;2.20;;;2.10;;
14098;SDS011;7126;48.458;7.930;2022-07-22T01:43:15;1.80;;;1.70;;
14098;SDS011;7126;48.458;7.930;2022-07-22T01:45:46;1.50;;;1.50;;
14098;SDS011;7126;48.458;7.930;2022-07-22T01:48:13;2.22;;;2.03;;
14098;SDS011;7126;48.458;7.930;2022-07-22T01:50:39;1.95;;;1.90;;
14098;SDS011;7126;48.458;7.930;2022-07-22T01:53:06;2.10;;;2.00;;
14098;SDS011;7126;48.458;7.930;2022-07-22T01:55:32;2.53;;;2.33;;
14098;SDS011;7126;48.458;7.930;2022-07-22T01:57:58;1.95;;;1.85;;
14098;SDS011;7126;48.458;7.930;2022-07-22T02:00:24;1.85;;;1.75;;
14098;SDS011;7126;48.458;7.930;2022-07-22T02:02:50;2.10;;;2.10;;
14098;SDS011;7126;48.458;7.930;2022-07-22T02:05:16;1.67;;;1.67;;
14098;SDS011;7126;48.458;7.930;2022-07-22T02:07:42;1.83;;;1.73;;
14098;SDS011;7126;48.458;7.930;2022-07-22T02:10:07;1.73;;;1.63;;
14098;SDS011;7126;48.458;7.930;2022-07-22T02:12:33;2.45;;;2.35;;
14098;SDS011;7126;48.458;7.930;2022-07-22T02:14:59;1.55;;;1.55;;
14098;SDS011;7126;48.458;7.930;2022-07-22T02:17:25;1.83;;;1.73;;
14098;SDS011;7126;48.458;7.930;2022-07-22T02:19:51;1.73;;;1.73;;
14098;SDS011;7126;48.458;7.930;2022-07-22T02:22:16;2.03;;;1.92;;
14098;SDS011;7126;48.458;7.930;2022-07-22T02:24:42;2.60;;;2.40;;
14098;SDS011;7126;48.458;7.930;2022-07-22T02:27:08;2.55;;;1.98;;
14098;SDS011;7126;48.458;7.930;2022-07-22T02:29:33;2.13;;;2.03;;
14098;SDS011;7126;48.458;7.930;2022-07-22T02:31:59;2.65;;;2.45;;
14098;SDS011;7126;48.458;7.930;2022-07-22T02:34:25;1.77;;;1.77;;
14098;SDS011;7126;48.458;7.930;2022-07-22T02:36:50;2.47;;;2.35;;
14098;SDS011;7126;48.458;7.930;2022-07-22T02:39:17;1.80;;;1.80;;
14098;SDS011;7126;48.458;7.930;2022-07-22T02:41:43;1.48;;;1.48;;
14098;SDS011;7126;48.458;7.930;2022-07-22T02:44:08;1.92;;;1.80;;
14098;SDS011;7126;48.458;7.930;2022-07-22T02:46:34;1.67;;;1.67;;
14098;SDS011;7126;48.458;7.930;2022-07-22T02:48:59;2.95;;;1.88;;
14098;SDS011;7126;48.458;7.930;2022-07-22T02:51:26;1.90;;;1.90;;
14098;SDS011;7126;48.458;7.930;2022-07-22T02:53:51;1.90;;;1.70;;
14098;SDS011;7126;48.458;7.930;2022-07-22T02:56:17;1.92;;;1.83;;
14098;SDS011;7126;48.458;7.930;2022-07-22T02:58:44;1.70;;;1.60;;
14098;SDS011;7126;48.458;7.930;2022-07-22T03:01:11;2.05;;;1.95;;
14098;SDS011;7126;48.458;7.930;2022-07-22T03:03:37;2.47;;;2.28;;
14098;SDS011;7126;48.458;7.930;2022-07-22T03:06:03;1.80;;;1.70;;
14098;SDS011;7126;48.458;7.930;2022-07-22T03:08:28;2.65;;;1.80;;
14098;SDS011;7126;48.458;7.930;2022-07-22T03:10:54;2.95;;;2.00;;
14098;SDS011;7126;48.458;7.930;2022-07-22T03:13:20;2.30;;;2.20;;
14098;SDS011;7126;48.458;7.930;2022-07-22T03:15:45;1.88;;;1.77;;
14098;SDS011;7126;48.458;7.930;2022-07-22T03:18:12;2.70;;;1.90;;
14098;SDS011;7126;48.458;7.930;2022-07-22T03:20:37;2.05;;;1.95;;
14098;SDS011;7126;48.458;7.930;2022-07-22T03:23:03;2.20;;;2.10;;
14098;SDS011;7126;48.458;7.930;2022-07-22T03:25:28;1.83;;;1.83;;
14098;SDS011;7126;48.458;7.930;2022-07-22T03:27:56;1.90;;;1.80;;
14098;SDS011;7126;48.458;7.930;2022-07-22T03:30:22;2.58;;;1.85;;
14098;SDS011;7126;48.458;7.930;2022-07-22T03:32:48;1.85;;;1.80;;
14098;SDS011;7126;48.458;7.930;2022-07-22T03:35:14;2.88;;;2.67;;
14098;SDS011;7126;48.458;7.930;2022-07-22T03:37:40;2.50;;;2.35;;
14098;SDS011;7126;48.458;7.930;2022-07-22T03:40:07;2.40;;;2.30;;
14098;SDS011;7126;48.458;7.930;2022-07-22T03:42:33;2.67;;;2.50;;
14098;SDS011;7126;48.458;7.930;2022-07-22T03:44:59;2.10;;;2.00;;
14098;SDS011;7126;48.458;7.930;2022-07-22T03:47:24;2.20;;;2.10;;
14098;SDS011;7126;48.458;7.930;2022-07-22T03:49:50;2.25;;;2.08;;
14098;SDS011;7126;48.458;7.930;2022-07-22T03:52:16;2.20;;;2.10;;
14098;SDS011;7126;48.458;7.930;2022-07-22T03:54:42;2.17;;;2.08;;
14098;SDS011;7126;48.458;7.930;2022-07-22T03:57:08;2.03;;;1.95;;
14098;SDS011;7126;48.458;7.930;2022-07-22T03:59:34;2.15;;;2.05;;
14098;SDS011;7126;48.458;7.930;2022-07-22T04:02:00;2.35;;;2.25;;
14098;SDS011;7126;48.458;7.930;2022-07-22T04:04:26;2.90;;;1.70;;
14098;SDS011;7126;48.458;7.930;2022-07-22T04:06:51;3.22;;;2.20;;
14098;SDS011;7126;48.458;7.930;2022-07-22T04:09:17;1.77;;;1.70;;
14098;SDS011;7126;48.458;7.930;2022-07-22T04:11:43;2.20;;;2.10;;
14098;SDS011;7126;48.458;7.930;2022-07-22T04:14:09;2.55;;;2.38;;
14098;SDS011;7126;48.458;7.930;2022-07-22T04:16:35;2.05;;;1.95;;
14098;SDS011;7126;48.458;7.930;2022-07-22T04:19:01;2.03;;;1.92;;
14098;SDS011;7126;48.458;7.930;2022-07-22T04:21:27;2.40;;;2.30;;
14098;SDS011;7126;48.458;7.930;2022-07-22T04:23:53;2.92;;;2.72;;
14098;SDS011;7126;48.458;7.930;2022-07-22T04:26:19;1.70;;;1.70;;
14098;SDS011;7126;48.458;7.930;2022-07-22T04:28:45;2.30;;;2.20;;
14098;SDS011;7126;48.458;7.930;2022-07-22T04:31:10;2.25;;;2.15;;
14098;SDS011;7126;48.458;7.930;2022-07-22T04:33:36;2.15;;;2.05;;
14098;SDS011;7126;48.458;7.930;2022-07-22T04:36:02;2.40;;;2.25;;
14098;SDS011;7126;48.458;7.930;2022-07-22T04:38:28;2.17;;;2.00;;
14098;SDS011;7126;48.458;7.930;2022-07-22T04:40:54;2.38;;;2.28;;
14098;SDS011;7126;48.458;7.930;2022-07-22T04:43:20;2.28;;;2.17;;
14098;SDS011;7126;48.458;7.930;2022-07-22T04:45:45;2.40;;;2.30;;
14098;SDS011;7126;48.458;7.930;2022-07-22T04:48:11;2.33;;;2.17;;
14098;SDS011;7126;48.458;7.930;2022-07-22T04:50:37;1.85;;;1.77;;
14098;SDS011;7126;48.458;7.930;2022-07-22T04:53:02;6.35;;;2.92;;
14098;SDS011;7126;48.458;7.930;2022-07-22T04:55:28;2.17;;;2.05;;
14098;SDS011;7126;48.458;7.930;2022-07-22T04:57:54;2.72;;;2.42;;
14098;SDS011;7126;48.458;7.930;2022-07-22T05:00:19;2.13;;;2.03;;
14098;SDS011;7126;48.458;7.930;2022-07-22T05:02:45;2.25;;;2.15;;
14098;SDS011;7126;48.458;7.930;2022-07-22T05:05:11;2.03;;;1.98;;
14098;SDS011;7126;48.458;7.930;2022-07-22T05:07:36;2.53;;;2.42;;
14098;SDS011;7126;48.458;7.930;2022-07-22T05:10:02;3.00;;;2.80;;
14098;SDS011;7126;48.458;7.930;2022-07-22T05:12:28;2.60;;;2.40;;
14098;SDS011;7126;48.458;7.930;2022-07-22T05:14:53;2.55;;;2.35;;
14098;SDS011;7126;48.458;7.930;2022-07-22T05:17:19;5.05;;;2.58;;
14098;SDS011;7126;48.458;7.930;2022-07-22T05:19:45;2.72;;;2.58;;
14098;SDS011;7126;48.458;7.930;2022-07-22T05:22:10;2.30;;;2.20;;
14098;SDS011;7126;48.458;7.930;2022-07-22T05:24:36;2.67;;;2.47;;
14098;SDS011;7126;48.458;7.930;2022-07-22T05:27:01;2.70;;;2.60;;
14098;SDS011;7126;48.458;7.930;2022-07-22T05:29:27;2.80;;;2.63;;
14098;SDS011;7126;48.458;7.930;2022-07-22T05:31:53;2.47;;;2.38;;
14098;SDS011;7126;48.458;7.930;2022-07-22T05:34:19;2.45;;;2.35;;
14098;SDS011;7126;48.458;7.930;2022-07-22T05:36:44;2.13;;;2.03;;
14098;SDS011;7126;48.458;7.930;2022-07-22T05:39:10;2.50;;;2.40;;
14098;SDS011;7126;48.458;7.930;2022-07-22T05:41:35;2.58;;;2.38;;
14098;SDS011;7126;48.458;7.930;2022-07-22T05:44:02;2.33;;;2.20;;
14098;SDS011;7126;48.458;7.930;2022-07-22T05:46:28;2.50;;;2.30;;
14098;SDS011;7126;48.458;7.930;2022-07-22T05:48:54;2.42;;;2.33;;
14098;SDS011;7126;48.458;7.930;2022-07-22T05:51:19;2.10;;;2.00;;
14098;SDS011;7126;48.458;7.930;2022-07-22T05:53:45;2.65;;;2.45;;
14098;SDS011;7126;48.458;7.930;2022-07-22T05:56:11;2.30;;;2.20;;
14098;SDS011;7126;48.458;7.930;2022-07-22T05:58:38;2.30;;;2.20;;
14098;SDS011;7126;48.458;7.930;2022-07-22T06:01:04;2.25;;;2.15;;
14098;SDS011;7126;48.458;7.930;2022-07-22T06:03:29;2.60;;;2.50;;
14098;SDS011;7126;48.458;7.930;2022-07-22T06:05:55;2.80;;;2.67;;
14098;SDS011;7126;48.458;7.930;2022-07-22T06:08:21;3.10;;;2.75;;
14098;SDS011;7126;48.458;7.930;2022-07-22T06:10:47;2.30;;;2.20;;
14098;SDS011;7126;48.458;7.930;2022-07-22T06:13:12;2.30;;;2.20;;
14098;SDS011;7126;48.458;7.930;2022-07-22T06:15:38;2.17;;;2.08;;
14098;SDS011;7126;48.458;7.930;2022-07-22T06:18:04;2.83;;;2.65;;
14098;SDS011;7126;48.458;7.930;2022-07-22T06:20:30;2.72;;;2.53;;
14098;SDS011;7126;48.458;7.930;2022-07-22T06:22:55;2.35;;;2.25;;
14098;SDS011;7126;48.458;7.930;2022-07-22T06:25:21;3.20;;;2.97;;
14098;SDS011;7126;48.458;7.930;2022-07-22T06:27:47;3.08;;;2.80;;
14098;SDS011;7126;48.458;7.930;2022-07-22T06:30:13;2.38;;;2.28;;
14098;SDS011;7126;48.458;7.930;2022-07-22T06:32:38;3.03;;;2.47;;
14098;SDS011;7126;48.458;7.930;2022-07-22T06:35:04;2.85;;;2.65;;
14098;SDS011;7126;48.458;7.930;2022-07-22T06:37:30;2.47;;;2.38;;
14098;SDS011;7126;48.458;7.930;2022-07-22T06:39:55;2.13;;;2.03;;
14098;SDS011;7126;48.458;7.930;2022-07-22T06:42:21;2.38;;;2.28;;
14098;SDS011;7126;48.458;7.930;2022-07-22T06:44:47;2.88;;;2.67;;
14098;SDS011;7126;48.458;7.930;2022-07-22T06:47:13;2.63;;;2.50;;
14098;SDS011;7126;48.458;7.930;2022-07-22T06:49:39;2.78;;;2.55;;
14098;SDS011;7126;48.458;7.930;2022-07-22T06:52:05;2.70;;;2.60;;
14098;SDS011;7126;48.458;7.930;2022-07-22T06:54:30;2.00;;;1.90;;
14098;SDS011;7126;48.458;7.930;2022-07-22T06:56:56;2.40;;;2.30;;
14098;SDS011;7126;48.458;7.930;2022-07-22T06:59:23;2.15;;;2.05;;
14098;SDS011;7126;48.458;7.930;2022-07-22T07:01:49;2.38;;;2.13;;
14098;SDS011;7126;48.458;7.930;2022-07-22T07:04:15;2.40;;;2.30;;
14098;SDS011;7126;48.458;7.930;2022-07-22T07:06:41;2.75;;;2.65;;
14098;SDS011;7126;48.458;7.930;2022-07-22T07:09:07;5.38;;;2.42;;
14098;SDS011;7126;48.458;7.930;2022-07-22T07:11:33;2.17;;;2.08;;
14098;SDS011;7126;48.458;7.930;2022-07-22T07:13:59;2.63;;;2.42;;
14098;SDS011;7126;48.458;7.930;2022-07-22T07:16:25;2.88;;;2.67;;
14098;SDS011;7126;48.458;7.930;2022-07-22T07:18:50;3.13;;;2.92;;
14098;SDS011;7126;48.458;7.930;2022-07-22T07:21:16;2.72;;;2.53;;
14098;SDS011;7126;48.458;7.930;2022-07-22T07:23:42;2.85;;;2.70;;
14098;SDS011;7126;48.458;7.930;2022-07-22T07:26:07;2.00;;;1.90;;
14098;SDS011;7126;48.458;7.930;2022-07-22T07:28:33;2.60;;;2.50;;
14098;SDS011;7126;48.458;7.930;2022-07-22T07:30:58;3.08;;;2.88;;
14098;SDS011;7126;48.458;7.930;2022-07-22T07:33:24;3.08;;;2.00;;
14098;SDS011;7126;48.458;7.930;2022-07-22T07:35:50;2.13;;;2.03;;
14098;SDS011;7126;48.458;7.930;2022-07-22T07:38:15;2.70;;;2.53;;
14098;SDS011;7126;48.458;7.930;2022-07-22T07:40:41;2.80;;;2.58;;
14098;SDS011;7126;48.458;7.930;2022-07-22T07:43:07;2.30;;;2.20;;
14098;SDS011;7126;48.458;7.930;2022-07-22T07:45:34;2.35;;;2.25;;
14098;SDS011;7126;48.458;7.930;2022-07-22T07:48:00;3.03;;;2.80;;
14098;SDS011;7126;48.458;7.930;2022-07-22T07:50:26;2.38;;;2.28;;
14098;SDS011;7126;48.458;7.930;2022-07-22T07:52:52;2.38;;;2.28;;
14098;SDS011;7126;48.458;7.930;2022-07-22T07:55:18;2.70;;;2.53;;
14098;SDS011;7126;48.458;7.930;2022-07-22T07:57:44;2.00;;;1.90;;
14098;SDS011;7126;48.458;7.930;2022-07-22T08:00:13;5.32;;;2.58;;
14098;SDS011;7126;48.458;7.930;2022-07-22T08:02:40;2.30;;;2.20;;
14098;SDS011;7126;48.458;7.930;2022-07-22T08:05:06;2.90;;;2.70;;
14098;SDS011;7126;48.458;7.930;2022-07-22T08:07:33;2.50;;;2.40;;
14098;SDS011;7126;48.458;7.930;2022-07-22T08:09:59;2.70;;;2.33;;
14098;SDS011;7126;48.458;7.930;2022-07-22T08:12:24;2.55;;;2.40;;
14098;SDS011;7126;48.458;7.930;2022-07-22T08:14:50;2.60;;;2.40;;
14098;SDS011;7126;48.458;7.930;2022-07-22T08:17:15;2.60;;;2.40;;
14098;SDS011;7126;48.458;7.930;2022-07-22T08:19:41;2.67;;;2.53;;
14098;SDS011;7126;48.458;7.930;2022-07-22T08:22:07;2.50;;;2.40;;
14098;SDS011;7126;48.458;7.930;2022-07-22T08:24:32;2.65;;;2.45;;
14098;SDS011;7126;48.458;7.930;2022-07-22T08:26:58;2.67;;;2.47;;
14098;SDS011;7126;48.458;7.930;2022-07-22T08:29:24;2.42;;;2.20;;
14098;SDS011;7126;48.458;7.930;2022-07-22T08:31:49;2.40;;;2.30;;
14098;SDS011;7126;48.458;7.930;2022-07-22T08:34:15;4.75;;;2.13;;
14098;SDS011;7126;48.458;7.930;2022-07-22T08:36:40;2.42;;;2.33;;
14098;SDS011;7126;48.458;7.930;2022-07-22T08:39:06;3.40;;;3.20;;
14098;SDS011;7126;48.458;7.930;2022-07-22T08:41:33;2.55;;;2.45;;
14098;SDS011;7126;48.458;7.930;2022-07-22T08:44:02;2.33;;;2.22;;
14098;SDS011;7126;48.458;7.930;2022-07-22T08:46:29;2.75;;;2.65;;
14098;SDS011;7126;48.458;7.930;2022-07-22T08:48:54;2.15;;;2.05;;
14098;SDS011;7126;48.458;7.930;2022-07-22T08:51:21;2.42;;;2.30;;
14098;SDS011;7126;48.458;7.930;2022-07-22T08:53:46;2.17;;;1.98;;
14098;SDS011;7126;48.458;7.930;2022-07-22T08:56:13;2.85;;;2.42;;
14098;SDS011;7126;48.458;7.930;2022-07-22T08:58:39;3.55;;;2.53;;
14098;SDS011;7126;48.458;7.930;2022-07-22T09:03:32;2.53;;;2.42;;
14098;SDS011;7126;48.458;7.930;2022-07-22T09:05:58;2.60;;;2.40;;
14098;SDS011;7126;48.458;7.930;2022-07-22T09:08:24;2.47;;;2.38;;
14098;SDS011;7126;48.458;7.930;2022-07-22T09:10:49;2.78;;;2.65;;
14098;SDS011;7126;48.458;7.930;2022-07-22T09:13:15;2.38;;;2.28;;
14098;SDS011;7126;48.458;7.930;2022-07-22T09:15:54;3.08;;;2.78;;
14098;SDS011;7126;48.458;7.930;2022-07-22T09:18:20;2.80;;;2.65;;
14098;SDS011;7126;48.458;7.930;2022-07-22T09:20:46;2.85;;;2.65;;
14098;SDS011;7126;48.458;7.930;2022-07-22T09:23:19;2.72;;;2.63;;
14098;SDS011;7126;48.458;7.930;2022-07-22T09:25:47;2.70;;;2.60;;
14098;SDS011;7126;48.458;7.930;2022-07-22T09:28:16;5.07;;;2.70;;
14098;SDS011;7126;48.458;7.930;2022-07-22T09:33:16;3.05;;;2.85;;
14098;SDS011;7126;48.458;7.930;2022-07-22T09:35:43;3.05;;;2.85;;
14098;SDS011;7126;48.458;7.930;2022-07-22T09:38:10;2.70;;;2.60;;
14098;SDS011;7126;48.458;7.930;2022-07-22T09:40:38;3.30;;;3.13;;
14098;SDS011;7126;48.458;7.930;2022-07-22T09:43:06;3.08;;;2.92;;
14098;SDS011;7126;48.458;7.930;2022-07-22T09:45:47;3.20;;;3.00;;
14098;SDS011;7126;48.458;7.930;2022-07-22T09:48:16;3.05;;;2.85;;
14098;SDS011;7126;48.458;7.930;2022-07-22T09:50:43;2.67;;;2.55;;
14098;SDS011;7126;48.458;7.930;2022-07-22T09:53:09;2.90;;;2.60;;
14098;SDS011;7126;48.458;7.930;2022-07-22T09:55:35;2.95;;;2.72;;
14098;SDS011;7126;48.458;7.930;2022-07-22T09:58:04;3.22;;;2.85;;
14098;SDS011;7126;48.458;7.930;2022-07-22T10:00:32;3.33;;;2.50;;
14098;SDS011;7126;48.458;7.930;2022-07-22T10:03:00;3.35;;;3.08;;
14098;SDS011;7126;48.458;7.930;2022-07-22T10:05:37;3.17;;;2.97;;
14098;SDS011;7126;48.458;7.930;2022-07-22T10:08:06;2.92;;;2.75;;
14098;SDS011;7126;48.458;7.930;2022-07-22T10:10:32;3.30;;;3.10;;
14098;SDS011;7126;48.458;7.930;2022-07-22T10:12:59;3.35;;;3.08;;
14098;SDS011;7126;48.458;7.930;2022-07-22T10:15:27;2.85;;;2.75;;
14098;SDS011;7126;48.458;7.930;2022-07-22T10:17:55;4.07;;;3.63;;
14098;SDS011;7126;48.458;7.930;2022-07-22T10:20:22;3.03;;;2.90;;
14098;SDS011;7126;48.458;7.930;2022-07-22T10:23:00;2.80;;;2.65;;
14098;SDS011;7126;48.458;7.930;2022-07-22T10:25:29;3.10;;;2.70;;
14098;SDS011;7126;48.458;7.930;2022-07-22T10:28:30;2.47;;;2.38;;
14098;SDS011;7126;48.458;7.930;2022-07-22T10:31:21;2.90;;;2.60;;
14098;SDS011;7126;48.458;7.930;2022-07-22T10:33:49;3.60;;;3.30;;
14098;SDS011;7126;48.458;7.930;2022-07-22T10:39:14;3.10;;;2.90;;
14098;SDS011;7126;48.458;7.930;2022-07-22T10:41:41;3.72;;;3.25;;
14098;SDS011;7126;48.458;7.930;2022-07-22T10:44:10;3.35;;;3.15;;
14098;SDS011;7126;48.458;7.930;2022-07-22T10:46:52;3.90;;;3.10;;
14098;SDS011;7126;48.458;7.930;2022-07-22T10:49:20;3.35;;;3.15;;
14098;SDS011;7126;48.458;7.930;2022-07-22T10:52:08;2.97;;;2.78;;
14098;SDS011;7126;48.458;7.930;2022-07-22T10:57:39;3.58;;;3.28;;
14098;SDS011;7126;48.458;7.930;2022-07-22T11:00:04;3.55;;;3.35;;
14098;SDS011;7126;48.458;7.930;2022-07-22T11:02:31;2.85;;;2.65;;
14098;SDS011;7126;48.458;7.930;2022-07-22T11:04:59;3.08;;;2.88;;
14098;SDS011;7126;48.458;7.930;2022-07-22T11:07:24;4.40;;;3.50;;
14098;SDS011;7126;48.458;7.930;2022-07-22T11:09:52;3.40;;;3.03;;
14098;SDS011;7126;48.458;7.930;2022-07-22T11:12:18;3.03;;;2.83;;
14098;SDS011;7126;48.458;7.930;2022-07-22T11:14:44;2.97;;;2.78;;
14098;SDS011;7126;48.458;7.930;2022-07-22T11:17:10;2.63;;;2.53;;
14098;SDS011;7126;48.458;7.930;2022-07-22T11:19:40;3.30;;;3.20;;
14098;SDS011;7126;48.458;7.930;2022-07-22T11:22:06;3.35;;;3.05;;
14098;SDS011;7126;48.458;7.930;2022-07-22T11:24:33;3.35;;;3.10;;
14098;SDS011;7126;48.458;7.930;2022-07-22T11:26:59;2.65;;;2.55;;
14098;SDS011;7126;48.458;7.930;2022-07-22T11:29:36;4.18;;;3.42;;
14098;SDS011;7126;48.458;7.930;2022-07-22T11:32:05;3.10;;;2.90;;
14098;SDS011;7126;48.458;7.930;2022-07-22T11:34:34;2.70;;;2.55;;
14098;SDS011;7126;48.458;7.930;2022-07-22T11:37:10;3.08;;;2.97;;
14098;SDS011;7126;48.458;7.930;2022-07-22T11:39:36;3.28;;;3.13;;
14098;SDS011;7126;48.458;7.930;2022-07-22T11:42:03;3.22;;;3.05;;
14098;SDS011;7126;48.458;7.930;2022-07-22T11:44:30;3.03;;;2.83;;
14098;SDS011;7126;48.458;7.930;2022-07-22T11:46:58;6.22;;;2.85;;
14098;SDS011;7126;48.458;7.930;2022-07-22T11:49:26;3.30;;;3.10;;
14098;SDS011;7126;48.458;7.930;2022-07-22T11:51:53;2.83;;;2.58;;
14098;SDS011;7126;48.458;7.930;2022-07-22T11:54:19;3.25;;;3.05;;
14098;SDS011;7126;48.458;7.930;2022-07-22T11:56:45;2.70;;;2.50;;
14098;SDS011;7126;48.458;7.930;2022-07-22T11:59:17;3.15;;;2.95;;
14098;SDS011;7126;48.458;7.930;2022-07-22T12:01:43;2.78;;;2.67;;
14098;SDS011;7126;48.458;7.930;2022-07-22T12:04:11;3.28;;;3.08;;
14098;SDS011;7126;48.458;7.930;2022-07-22T12:06:47;2.97;;;2.78;;
14098;SDS011;7126;48.458;7.930;2022-07-22T12:11:41;3.03;;;2.83;;
14098;SDS011;7126;48.458;7.930;2022-07-22T12:14:10;2.33;;;2.22;;
14098;SDS011;7126;48.458;7.930;2022-07-22T12:16:37;2.70;;;2.60;;
14098;SDS011;7126;48.458;7.930;2022-07-22T12:19:05;2.92;;;2.80;;
14098;SDS011;7126;48.458;7.930;2022-07-22T12:21:36;3.28;;;2.50;;
14098;SDS011;7126;48.458;7.930;2022-07-22T12:24:41;2.70;;;2.55;;
14098;SDS011;7126;48.458;7.930;2022-07-22T12:27:13;3.10;;;2.80;;
14098;SDS011;7126;48.458;7.930;2022-07-22T12:29:47;2.90;;;2.70;;
14098;SDS011;7126;48.458;7.930;2022-07-22T12:32:18;2.70;;;2.60;;
14098;SDS011;7126;48.458;7.930;2022-07-22T12:37:21;3.17;;;2.97;;
14098;SDS011;7126;48.458;7.930;2022-07-22T12:42:42;3.25;;;3.10;;
14098;SDS011;7126;48.458;7.930;2022-07-22T12:45:10;3.58;;;3.28;;
14098;SDS011;7126;48.458;7.930;2022-07-22T12:47:51;2.75;;;2.65;;
14098;SDS011;7126;48.458;7.930;2022-07-22T12:50:25;3.47;;;3.28;;
14098;SDS011;7126;48.458;7.930;2022-07-22T12:53:14;4.13;;;2.88;;
14098;SDS011;7126;48.458;7.930;2022-07-22T12:55:40;2.95;;;2.80;;
14098;SDS011;7126;48.458;7.930;2022-07-22T12:58:27;2.97;;;2.88;;
14098;SDS011;7126;48.458;7.930;2022-07-22T13:00:58;3.33;;;3.13;;
14098;SDS011;7126;48.458;7.930;2022-07-22T13:03:25;2.88;;;2.70;;
14098;SDS011;7126;48.458;7.930;2022-07-22T13:05:53;2.83;;;2.72;;
14098;SDS011;7126;48.458;7.930;2022-07-22T13:08:20;3.13;;;2.92;;
14098;SDS011;7126;48.458;7.930;2022-07-22T13:10:46;2.90;;;2.70;;
14098;SDS011;7126;48.458;7.930;2022-07-22T13:13:13;2.85;;;2.60;;
14098;SDS011;7126;48.458;7.930;2022-07-22T13:15:38;4.70;;;3.00;;
14098;SDS011;7126;48.458;7.930;2022-07-22T13:18:04;3.55;;;3.35;;
14098;SDS011;7126;48.458;7.930;2022-07-22T13:20:31;3.10;;;3.00;;
14098;SDS011;7126;48.458;7.930;2022-07-22T13:22:56;3.30;;;3.10;;
14098;SDS011;7126;48.458;7.930;2022-07-22T13:25:22;2.72;;;2.63;;
14098;SDS011;7126;48.458;7.930;2022-07-22T13:27:51;3.30;;;3.10;;
14098;SDS011;7126;48.458;7.930;2022-07-22T13:30:17;2.60;;;2.50;;
14098;SDS011;7126;48.458;7.930;2022-07-22T13:32:43;2.83;;;2.72;;
14098;SDS011;7126;48.458;7.930;2022-07-22T13:35:09;3.10;;;3.00;;
14098;SDS011;7126;48.458;7.930;2022-07-22T13:37:34;2.92;;;2.83;;
14098;SDS011;7126;48.458;7.930;2022-07-22T13:40:00;5.22;;;2.78;;
14098;SDS011;7126;48.458;7.930;2022-07-22T13:42:26;2.67;;;2.58;;
14098;SDS011;7126;48.458;7.930;2022-07-22T13:44:51;3.40;;;3.20;;
14098;SDS011;7126;48.458;7.930;2022-07-22T13:47:19;2.80;;;2.70;;
14098;SDS011;7126;48.458;7.930;2022-07-22T13:49:45;2.53;;;2.42;;
14098;SDS011;7126;48.458;7.930;2022-07-22T13:52:11;3.10;;;2.90;;
14098;SDS011;7126;48.458;7.930;2022-07-22T13:54:37;2.42;;;2.33;;
14098;SDS011;7126;48.458;7.930;2022-07-22T13:57:03;2.83;;;2.63;;
14098;SDS011;7126;48.458;7.930;2022-07-22T13:59:29;2.70;;;2.60;;
14098;SDS011;7126;48.458;7.930;2022-07-22T14:01:55;3.47;;;3.28;;
14098;SDS011;7126;48.458;7.930;2022-07-22T14:04:21;2.63;;;2.53;;
14098;SDS011;7126;48.458;7.930;2022-07-22T14:06:47;4.80;;;3.55;;
14098;SDS011;7126;48.458;7.930;2022-07-22T14:09:13;5.28;;;2.60;;
14098;SDS011;7126;48.458;7.930;2022-07-22T14:11:38;2.70;;;2.50;;
14098;SDS011;7126;48.458;7.930;2022-07-22T14:14:04;3.30;;;3.10;;
14098;SDS011;7126;48.458;7.930;2022-07-22T14:16:31;2.85;;;2.75;;
14098;SDS011;7126;48.458;7.930;2022-07-22T14:19:04;3.50;;;2.60;;
14098;SDS011;7126;48.458;7.930;2022-07-22T14:21:32;2.72;;;2.53;;
14098;SDS011;7126;48.458;7.930;2022-07-22T14:23:59;2.83;;;2.72;;
14098;SDS011;7126;48.458;7.930;2022-07-22T14:26:25;3.25;;;3.08;;
14098;SDS011;7126;48.458;7.930;2022-07-22T14:28:51;2.70;;;2.60;;
14098;SDS011;7126;48.458;7.930;2022-07-22T14:31:16;2.78;;;2.58;;
14098;SDS011;7126;48.458;7.930;2022-07-22T14:33:42;2.80;;;2.70;;
14098;SDS011;7126;48.458;7.930;2022-07-22T14:36:08;2.90;;;2.80;;
14098;SDS011;7126;48.458;7.930;2022-07-22T14:38:34;3.28;;;3.08;;
14098;SDS011;7126;48.458;7.930;2022-07-22T14:40:59;2.92;;;2.47;;
14098;SDS011;7126;48.458;7.930;2022-07-22T14:43:25;3.45;;;2.67;;
14098;SDS011;7126;48.458;7.930;2022-07-22T14:45:51;2.58;;;2.47;;
14098;SDS011;7126;48.458;7.930;2022-07-22T14:48:17;3.88;;;2.67;;
14098;SDS011;7126;48.458;7.930;2022-07-22T14:50:43;2.72;;;2.63;;
14098;SDS011;7126;48.458;7.930;2022-07-22T14:53:08;2.78;;;2.67;;
14098;SDS011;7126;48.458;7.930;2022-07-22T14:55:34;2.47;;;2.42;;
14098;SDS011;7126;48.458;7.930;2022-07-22T14:57:59;2.85;;;2.75;;
14098;SDS011;7126;48.458;7.930;2022-07-22T15:00:25;3.05;;;2.85;;
14098;SDS011;7126;48.458;7.930;2022-07-22T15:02:51;2.95;;;2.85;;
14098;SDS011;7126;48.458;7.930;2022-07-22T15:05:16;2.63;;;2.53;;
14098;SDS011;7126;48.458;7.930;2022-07-22T15:07:42;2.70;;;2.60;;
14098;SDS011;7126;48.458;7.930;2022-07-22T15:10:08;3.10;;;3.00;;
14098;SDS011;7126;48.458;7.930;2022-07-22T15:12:35;3.17;;;3.05;;
14098;SDS011;7126;48.458;7.930;2022-07-22T15:15:01;2.17;;;2.17;;
14098;SDS011;7126;48.458;7.930;2022-07-22T15:17:27;2.78;;;2.67;;